sensor_id;sensor_type;location;lat;lon;timestamp;pressure;altitude;pressure_sealevel;temperature;humidity
50650;BME280;36621;60.058;30.346;2022-09-20T04:31:11;99610.78;;;12.46;72.22
50650;BME280;36621;60.058;30.346;2022-09-20T04:38:52;99619.63;;;12.65;72.05
50650;BME280;36621;60.058;30.346;2022-09-20T04:46:39;99636.97;;;13.90;69.13
50650;BME280;36621;60.058;30.346;2022-09-20T05:10:13;99691.22;;;13.44;70.51
50650;BME280;36621;60.058;30.346;2022-09-20T05:18:02;99703.38;;;13.20;71.17
50650;BME280;36621;60.058;30.346;2022-09-20T16:39:08;100888.66;;;15.08;55.66
50650;BME280;36621;60.058;30.346;2022-09-20T16:46:40;100893.94;;;15.04;55.94
50650;BME280;36621;60.058;30.346;2022-09-20T16:54:13;100901.53;;;14.93;56.02
50650;BME280;36621;60.058;30.346;2022-09-20T17:01:45;100914.53;;;14.88;56.21
50650;BME280;36621;60.058;30.346;2022-09-20T17:09:18;100936.38;;;14.79;56.58
50650;BME280;36621;60.058;30.346;2022-09-20T17:16:50;100948.72;;;14.57;56.86
50650;BME280;36621;60.058;30.346;2022-09-20T17:24:23;100972.81;;;14.41;57.02
50650;BME280;36621;60.058;30.346;2022-09-20T17:31:56;100976.53;;;14.27;56.99
50650;BME280;36621;60.058;30.346;2022-09-20T17:39:32;100978.41;;;14.07;57.58
50650;BME280;36621;60.058;30.346;2022-09-20T17:47:03;100999.94;;;13.95;57.66
50650;BME280;36621;60.058;30.346;2022-09-20T17:54:37;101012.84;;;13.94;57.17
50650;BME280;36621;60.058;30.346;2022-09-20T18:02:09;101015.19;;;14.06;57.10
50650;BME280;36621;60.058;30.346;2022-09-20T18:09:42;101029.72;;;14.06;57.75
50650;BME280;36621;60.058;30.346;2022-09-20T18:17:13;101022.81;;;14.14;57.77
50650;BME280;36621;60.058;30.346;2022-09-20T18:24:46;101036.44;;;14.24;57.58
50650;BME280;36621;60.058;30.346;2022-09-20T18:32:18;101046.66;;;14.19;57.98
50650;BME280;36621;60.058;30.346;2022-09-20T18:39:50;101053.34;;;14.07;57.96
50650;BME280;36621;60.058;30.346;2022-09-20T18:47:22;101071.00;;;13.96;58.45
50650;BME280;36621;60.058;30.346;2022-09-20T18:54:55;101070.28;;;13.85;58.22
50650;BME280;36621;60.058;30.346;2022-09-20T19:02:34;101087.06;;;13.79;57.83
50650;BME280;36621;60.058;30.346;2022-09-20T19:10:16;101088.13;;;13.83;58.35
50650;BME280;36621;60.058;30.346;2022-09-20T19:17:55;101096.38;;;13.83;57.76
50650;BME280;36621;60.058;30.346;2022-09-20T19:25:34;101116.38;;;13.83;57.98
50650;BME280;36621;60.058;30.346;2022-09-20T19:33:11;101126.84;;;13.81;58.15
50650;BME280;36621;60.058;30.346;2022-09-20T19:40:56;101135.34;;;13.80;58.90
50650;BME280;36621;60.058;30.346;2022-09-20T19:48:33;101139.47;;;13.77;58.30
50650;BME280;36621;60.058;30.346;2022-09-20T19:56:13;101155.75;;;13.63;58.96
50650;BME280;36621;60.058;30.346;2022-09-20T20:03:54;101157.38;;;13.64;58.65
50650;BME280;36621;60.058;30.346;2022-09-20T20:11:30;101170.81;;;13.66;59.00
50650;BME280;36621;60.058;30.346;2022-09-20T20:19:08;101185.41;;;13.61;59.19
50650;BME280;36621;60.058;30.346;2022-09-20T20:26:44;101191.97;;;13.60;58.86
50650;BME280;36621;60.058;30.346;2022-09-20T20:34:16;101203.50;;;13.62;59.91
50650;BME280;36621;60.058;30.346;2022-09-20T20:41:49;101208.16;;;13.62;59.90
50650;BME280;36621;60.058;30.346;2022-09-20T20:49:25;101222.16;;;13.60;59.33
50650;BME280;36621;60.058;30.346;2022-09-20T20:56:58;101225.22;;;13.53;59.82
50650;BME280;36621;60.058;30.346;2022-09-20T21:04:39;101245.22;;;13.54;59.43
50650;BME280;36621;60.058;30.346;2022-09-20T21:12:11;101255.41;;;13.53;59.79
50650;BME280;36621;60.058;30.346;2022-09-20T21:19:44;101251.28;;;13.51;59.75
50650;BME280;36621;60.058;30.346;2022-09-20T21:27:17;101262.25;;;13.51;60.08
50650;BME280;36621;60.058;30.346;2022-09-20T21:34:50;101262.81;;;13.48;60.35
50650;BME280;36621;60.058;30.346;2022-09-20T21:42:25;101266.13;;;13.45;60.29
50650;BME280;36621;60.058;30.346;2022-09-20T21:49:58;101281.47;;;13.46;60.44
50650;BME280;36621;60.058;30.346;2022-09-20T21:57:30;101277.94;;;13.35;60.11
50650;BME280;36621;60.058;30.346;2022-09-20T22:05:02;101303.41;;;13.25;60.39
50650;BME280;36621;60.058;30.346;2022-09-20T22:12:35;101296.03;;;13.05;60.49
50650;BME280;36621;60.058;30.346;2022-09-20T22:20:07;101313.31;;;13.00;60.17
50650;BME280;36621;60.058;30.346;2022-09-20T22:27:39;101316.31;;;12.94;60.12
50650;BME280;36621;60.058;30.346;2022-09-20T22:35:11;101320.44;;;12.81;61.01
50650;BME280;36621;60.058;30.346;2022-09-20T22:42:44;101323.72;;;12.73;61.55
50650;BME280;36621;60.058;30.346;2022-09-20T22:50:15;101329.19;;;12.62;61.91
50650;BME280;36621;60.058;30.346;2022-09-20T22:57:50;101335.19;;;12.59;62.17
50650;BME280;36621;60.058;30.346;2022-09-20T23:05:22;101337.66;;;12.61;62.14
50650;BME280;36621;60.058;30.346;2022-09-20T23:12:54;101347.53;;;12.57;61.89
50650;BME280;36621;60.058;30.346;2022-09-20T23:20:26;101349.44;;;12.41;62.72
50650;BME280;36621;60.058;30.346;2022-09-20T23:27:59;101354.91;;;12.41;62.57
50650;BME280;36621;60.058;30.346;2022-09-20T23:35:31;101355.97;;;12.34;62.88
50650;BME280;36621;60.058;30.346;2022-09-20T23:43:04;101364.16;;;12.24;62.56
50650;BME280;36621;60.058;30.346;2022-09-20T23:50:36;101372.31;;;12.14;62.81
50650;BME280;36621;60.058;30.346;2022-09-20T23:58:09;101370.69;;;12.18;62.56
